HAPPY24 EFJY-EFJY

Flight info

Callsign HAPPY24
Flight time 0h 11m
Altitude 1500
Route TC
Aircraft PC12/L-SDFGRY/H

Departure

Time 2026-05-07 21:13
Airport Jyväskylä Airport (EFJY)

Arrival

Time 2026-05-07 21:24
Airport Jyväskylä Airport (EFJY)
Time Latitude Longitude Altitude Speed Heading
2026-05-07 21:08 62.40167 25.65725 479 ft 0 kts 47°
2026-05-07 21:11 62.40203 25.65763 479 ft 13 kts 34°
2026-05-07 21:11 62.40447 25.66272 478 ft 1 kts 44°
2026-05-07 21:12 62.40491 25.66371 480 ft 17 kts 39°
2026-05-07 21:12 62.40511 25.66559 476 ft 27 kts 131°
2026-05-07 21:12 62.40251 25.67142 471 ft 87 kts 134°
2026-05-07 21:12 62.39782 25.68342 763 ft 115 kts 118°
2026-05-07 21:13 62.39462 25.69820 1556 ft 110 kts 107°
2026-05-07 21:13 62.39733 25.71167 1913 ft 112 kts 356°
2026-05-07 21:13 62.40279 25.70103 1989 ft 103 kts 306°
2026-05-07 21:13 62.40867 25.68861 1363 ft 121 kts 319°
2026-05-07 21:14 62.41390 25.67865 1144 ft 89 kts 319°
2026-05-07 21:14 62.41417 25.66802 936 ft 103 kts 211°
2026-05-07 21:14 62.40660 25.66769 700 ft 114 kts 162°
2026-05-07 21:14 62.40048 25.67614 471 ft 99 kts 135°
2026-05-07 21:15 62.39578 25.68667 598 ft 103 kts 130°
2026-05-07 21:15 62.39038 25.70055 1005 ft 129 kts 135°
2026-05-07 21:15 62.38172 25.69888 1371 ft 149 kts 242°
2026-05-07 21:15 62.38371 25.68011 1172 ft 147 kts 308°
2026-05-07 21:16 62.38937 25.66523 1087 ft 115 kts 312°
2026-05-07 21:16 62.39476 25.65316 1005 ft 107 kts 315°
2026-05-07 21:16 62.39981 25.64369 923 ft 93 kts 320°
2026-05-07 21:16 62.40544 25.64415 824 ft 108 kts 54°
2026-05-07 21:17 62.40598 25.66082 571 ft 111 kts 109°
2026-05-07 21:17 62.40166 25.67324 468 ft 94 kts 133°
2026-05-07 21:17 62.39728 25.68363 665 ft 98 kts 128°
2026-05-07 21:17 62.39213 25.69623 875 ft 133 kts 131°
2026-05-07 21:18 62.39318 25.71341 1303 ft 143 kts 27°
2026-05-07 21:18 62.40184 25.71105 1359 ft 132 kts 322°
2026-05-07 21:18 62.40903 25.69807 1118 ft 125 kts 320°
2026-05-07 21:18 62.41606 25.68609 1150 ft 123 kts 322°
2026-05-07 21:19 62.42246 25.67505 1173 ft 107 kts 306°
2026-05-07 21:19 62.42110 25.66109 1107 ft 113 kts 220°
2026-05-07 21:19 62.41351 25.65767 869 ft 107 kts 179°
2026-05-07 21:19 62.40655 25.66282 567 ft 117 kts 143°
2026-05-07 21:20 62.40128 25.67416 466 ft 91 kts 134°
2026-05-07 21:20 62.39657 25.68495 652 ft 104 kts 131°
2026-05-07 21:20 62.39178 25.69798 989 ft 128 kts 126°
2026-05-07 21:20 62.38569 25.71478 1542 ft 149 kts 129°
2026-05-07 21:21 62.38027 25.73432 2230 ft 164 kts 95°
2026-05-07 21:21 62.38398 25.75649 2479 ft 161 kts 35°
2026-05-07 21:21 62.39381 25.76206 2729 ft 147 kts 348°
2026-05-07 21:21 62.40327 25.75205 2617 ft 151 kts 320°
2026-05-07 21:22 62.41054 25.73683 2195 ft 142 kts 315°
2026-05-07 21:22 62.41694 25.72147 1917 ft 133 kts 313°
2026-05-07 21:22 62.42275 25.70676 1612 ft 123 kts 311°
2026-05-07 21:22 62.42687 25.69380 1546 ft 90 kts 289°
2026-05-07 21:23 62.42650 25.67991 1425 ft 102 kts 258°
2026-05-07 21:23 62.42319 25.66713 1108 ft 94 kts 234°
2026-05-07 21:23 62.41794 25.65767 984 ft 101 kts 210°
2026-05-07 21:23 62.41104 25.65740 761 ft 99 kts 165°
2026-05-07 21:24 62.40535 25.66509 490 ft 97 kts 134°
2026-05-07 21:24 62.40128 25.67400 466 ft 52 kts 150°
2026-05-07 21:24 62.40017 25.67311 467 ft 20 kts 233°
2026-05-07 21:24 62.40061 25.66997 470 ft 33 kts 314°
2026-05-07 21:25 62.40243 25.66587 475 ft 43 kts 313°
2026-05-07 21:25 62.40463 25.66099 477 ft 37 kts 313°
2026-05-07 21:25 62.40570 25.65859 484 ft 21 kts 307°
2026-05-07 21:25 62.40456 25.65598 484 ft 29 kts 186°
2026-05-07 21:26 62.40275 25.65637 481 ft 8 kts 213°
2026-05-07 21:26 62.40265 25.65589 478 ft 0 kts 253°